Time;durP1;ratioP1;P1;durP2;ratioP2;P2;SDS_P1;SDS_P2;PMS_P1;PMS_P2;Temp;Humidity;BMP_temperature;BMP_pressure;BME280_temperature;BME280_humidity;BME280_pressure;Samples;Min_cycle;Max_cycle;Signal;HPM_P1;HPM_P2
2022/07/26 00:00:12;;;;;;;7.00;2.70;;;;;;;;;;5082967;28;20521;-84
2022/07/26 00:02:40;;;;;;;5.07;2.80;;;;;;;;;;5083145;28;20102;-84
2022/07/26 00:05:14;;;;;;;5.68;2.58;;;;;;;;;;5085249;28;20049;-85
2022/07/26 00:07:42;;;;;;;4.32;2.65;;;;;;;;;;5082963;28;20048;-85
2022/07/26 00:10:09;;;;;;;3.10;2.40;;;;;;;;;;5082374;28;20059;-85
2022/07/26 00:12:36;;;;;;;3.88;2.72;;;;;;;;;;5082031;28;20052;-85
2022/07/26 00:15:05;;;;;;;3.17;2.55;;;;;;;;;;5081655;28;20044;-85
2022/07/26 00:17:32;;;;;;;3.15;2.72;;;;;;;;;;5081315;28;20045;-84
2022/07/26 00:19:59;;;;;;;3.22;2.92;;;;;;;;;;5080295;28;20118;-84
2022/07/26 00:22:38;;;;;;;4.95;2.90;;;;;;;;;;5078384;28;20086;-84
2022/07/26 00:25:06;;;;;;;5.70;2.88;;;;;;;;;;5079903;28;20115;-84
2022/07/26 00:27:37;;;;;;;4.50;2.95;;;;;;;;;;5078730;28;20048;-85
2022/07/26 00:30:07;;;;;;;5.65;3.13;;;;;;;;;;5080091;28;20486;-85
2022/07/26 00:32:35;;;;;;;3.83;2.55;;;;;;;;;;5080496;28;20049;-84
2022/07/26 00:35:03;;;;;;;2.58;2.38;;;;;;;;;;5081399;28;20052;-87
2022/07/26 00:37:30;;;;;;;5.78;2.80;;;;;;;;;;5079301;28;20072;-85
2022/07/26 00:39:57;;;;;;;6.20;2.97;;;;;;;;;;5078764;28;20105;-85
2022/07/26 00:42:24;;;;;;;4.88;2.72;;;;;;;;;;5078607;28;20045;-85
2022/07/26 00:44:51;;;;;;;3.15;2.78;;;;;;;;;;5080507;28;20048;-85
2022/07/26 00:47:18;;;;;;;5.78;2.90;;;;;;;;;;5079240;28;20082;-85
2022/07/26 00:49:46;;;;;;;4.13;2.78;;;;;;;;;;5080318;28;20052;-84
2022/07/26 00:52:13;;;;;;;5.90;2.75;;;;;;;;;;5080300;28;20079;-85
2022/07/26 00:54:42;;;;;;;3.70;2.67;;;;;;;;;;5080434;28;20048;-84
2022/07/26 00:57:09;;;;;;;5.38;2.70;;;;;;;;;;5080804;28;20051;-85
2022/07/26 00:59:37;;;;;;;4.18;2.92;;;;;;;;;;5079212;28;20075;-84
2022/07/26 01:02:05;;;;;;;3.85;2.30;;;;;;;;;;5078804;28;20056;-84
2022/07/26 01:04:33;;;;;;;6.85;2.55;;;;;;;;;;5079793;28;20060;-85
2022/07/26 01:07:01;;;;;;;4.88;2.40;;;;;;;;;;5081189;28;20056;-85
2022/07/26 01:09:40;;;;;;;3.60;2.38;;;;;;;;;;5079950;28;20053;-85
2022/07/26 01:12:08;;;;;;;4.60;2.65;;;;;;;;;;5079885;28;20555;-85
2022/07/26 01:14:35;;;;;;;5.15;2.28;;;;;;;;;;5080523;28;20048;-85
2022/07/26 01:17:02;;;;;;;4.90;2.05;;;;;;;;;;5080242;28;20048;-84
2022/07/26 01:19:29;;;;;;;4.45;2.17;;;;;;;;;;5079845;28;20409;-85
2022/07/26 01:21:57;;;;;;;3.53;2.50;;;;;;;;;;5083760;28;20044;-86
2022/07/26 01:24:25;;;;;;;2.95;2.25;;;;;;;;;;5083892;28;20055;-84
2022/07/26 01:26:54;;;;;;;6.88;2.40;;;;;;;;;;5082983;28;20052;-84
2022/07/26 01:29:21;;;;;;;4.20;2.70;;;;;;;;;;5084462;28;20456;-85
2022/07/26 01:31:50;;;;;;;3.42;2.63;;;;;;;;;;5087283;28;20060;-83
2022/07/26 01:34:18;;;;;;;4.65;2.30;;;;;;;;;;5089300;28;20056;-84
2022/07/26 01:36:45;;;;;;;3.00;2.65;;;;;;;;;;5081747;28;20047;-84
2022/07/26 01:39:12;;;;;;;4.53;2.67;;;;;;;;;;5084091;28;20049;-85
2022/07/26 01:41:40;;;;;;;3.45;2.40;;;;;;;;;;5082702;28;20055;-85
2022/07/26 01:44:07;;;;;;;6.43;2.63;;;;;;;;;;5083511;28;20066;-86
2022/07/26 01:46:35;;;;;;;5.10;2.58;;;;;;;;;;5084952;28;20124;-85
2022/07/26 01:49:02;;;;;;;4.15;2.15;;;;;;;;;;5084153;28;20559;-86
2022/07/26 01:51:29;;;;;;;3.00;2.67;;;;;;;;;;5085428;28;20082;-85
2022/07/26 01:53:57;;;;;;;3.10;2.47;;;;;;;;;;5083566;28;20052;-84
2022/07/26 01:56:24;;;;;;;4.15;2.30;;;;;;;;;;5084923;28;20062;-85
2022/07/26 01:58:51;;;;;;;4.13;2.67;;;;;;;;;;5082997;28;20198;-84
2022/07/26 02:01:18;;;;;;;4.95;2.35;;;;;;;;;;5080575;28;20463;-84
2022/07/26 02:04:06;;;;;;;4.43;2.20;;;;;;;;;;5082040;28;20106;-84
2022/07/26 02:06:33;;;;;;;4.85;2.58;;;;;;;;;;5083726;28;20504;-85
2022/07/26 02:09:00;;;;;;;6.15;2.83;;;;;;;;;;5082802;28;20514;-84
2022/07/26 02:11:28;;;;;;;5.53;2.33;;;;;;;;;;5081102;28;20076;-85
2022/07/26 02:13:55;;;;;;;4.80;2.63;;;;;;;;;;5081938;28;20101;-84
2022/07/26 02:16:23;;;;;;;2.65;2.40;;;;;;;;;;5080972;28;20575;-84
2022/07/26 02:18:50;;;;;;;6.50;2.83;;;;;;;;;;5081678;28;20045;-84
2022/07/26 02:21:17;;;;;;;4.00;2.60;;;;;;;;;;5084147;28;20064;-84
2022/07/26 02:23:44;;;;;;;5.35;2.78;;;;;;;;;;5086046;28;20486;-85
2022/07/26 02:26:11;;;;;;;3.55;2.40;;;;;;;;;;5085469;28;20055;-84
2022/07/26 02:28:38;;;;;;;4.68;2.78;;;;;;;;;;5085635;28;20106;-86
2022/07/26 02:31:06;;;;;;;4.80;2.85;;;;;;;;;;5085707;28;20082;-84
2022/07/26 02:33:33;;;;;;;6.18;3.38;;;;;;;;;;5090931;28;20078;-86
2022/07/26 02:36:00;;;;;;;4.35;2.90;;;;;;;;;;5086349;28;20102;-85
2022/07/26 02:38:27;;;;;;;4.38;2.40;;;;;;;;;;5085437;28;20094;-85
2022/07/26 02:40:54;;;;;;;7.32;2.95;;;;;;;;;;5086030;28;20048;-85
2022/07/26 02:43:22;;;;;;;5.43;2.90;;;;;;;;;;5084382;28;20425;-85
2022/07/26 02:45:49;;;;;;;2.75;2.53;;;;;;;;;;5085162;28;20074;-85
2022/07/26 02:48:28;;;;;;;3.90;2.58;;;;;;;;;;5085496;28;20143;-84
2022/07/26 02:50:55;;;;;;;4.60;2.63;;;;;;;;;;5083807;28;20066;-84
2022/07/26 02:53:23;;;;;;;3.17;2.85;;;;;;;;;;5085285;28;20056;-84
2022/07/26 02:55:50;;;;;;;7.03;2.88;;;;;;;;;;5085347;28;20098;-87
2022/07/26 02:58:20;;;;;;;11.27;2.85;;;;;;;;;;5083873;28;20513;-84
2022/07/26 03:00:47;;;;;;;4.28;2.80;;;;;;;;;;5092178;28;20052;-84
2022/07/26 03:03:15;;;;;;;3.10;2.75;;;;;;;;;;5091147;28;20052;-84
2022/07/26 03:05:43;;;;;;;3.95;2.60;;;;;;;;;;5093447;28;20044;-84
2022/07/26 03:08:10;;;;;;;5.32;2.90;;;;;;;;;;5092374;28;20048;-84
2022/07/26 03:10:37;;;;;;;6.80;2.65;;;;;;;;;;5094494;28;20057;-85
2022/07/26 03:13:04;;;;;;;4.75;3.20;;;;;;;;;;5095651;28;20052;-87
2022/07/26 03:15:32;;;;;;;4.00;2.92;;;;;;;;;;5093454;28;20070;-86
2022/07/26 03:17:59;;;;;;;2.90;2.50;;;;;;;;;;5091361;28;20052;-86
2022/07/26 03:20:26;;;;;;;6.07;2.75;;;;;;;;;;5093968;28;20075;-85
2022/07/26 03:22:53;;;;;;;3.42;3.10;;;;;;;;;;5093303;28;20045;-85
2022/07/26 03:25:20;;;;;;;3.13;2.83;;;;;;;;;;5093333;28;20048;-85
2022/07/26 03:27:48;;;;;;;6.57;3.38;;;;;;;;;;5092273;28;20044;-88
2022/07/26 03:30:15;;;;;;;4.25;3.30;;;;;;;;;;5092659;28;20044;-85
2022/07/26 03:32:50;;;;;;;6.05;2.90;;;;;;;;;;5093231;28;20064;-85
2022/07/26 03:35:18;;;;;;;5.55;3.10;;;;;;;;;;5094075;28;20048;-88
2022/07/26 03:37:45;;;;;;;4.90;3.00;;;;;;;;;;5092180;28;20069;-87
2022/07/26 03:40:14;;;;;;;3.95;3.17;;;;;;;;;;5090987;28;20053;-85
2022/07/26 03:42:41;;;;;;;6.72;3.35;;;;;;;;;;5094348;28;20048;-87
2022/07/26 03:45:08;;;;;;;6.50;3.38;;;;;;;;;;5093305;28;20067;-86
2022/07/26 03:47:36;;;;;;;5.03;3.47;;;;;;;;;;5093157;28;20052;-86
2022/07/26 03:50:04;;;;;;;3.40;3.20;;;;;;;;;;5094056;28;20048;-87
2022/07/26 03:52:31;;;;;;;9.07;3.90;;;;;;;;;;5096156;28;20051;-86
2022/07/26 03:54:58;;;;;;;5.70;3.53;;;;;;;;;;5094140;28;20083;-86
2022/07/26 03:57:26;;;;;;;6.30;3.60;;;;;;;;;;5095847;28;20103;-86
2022/07/26 03:59:54;;;;;;;8.88;4.25;;;;;;;;;;5094540;28;20031;-87
2022/07/26 04:02:22;;;;;;;9.68;3.83;;;;;;;;;;5094140;28;20096;-86
2022/07/26 04:04:49;;;;;;;4.30;3.33;;;;;;;;;;5093668;28;20076;-86
2022/07/26 04:07:16;;;;;;;6.88;3.75;;;;;;;;;;5092046;28;20078;-86
2022/07/26 04:09:44;;;;;;;8.80;3.70;;;;;;;;;;5085145;28;20059;-85
2022/07/26 04:12:11;;;;;;;6.65;3.63;;;;;;;;;;5086938;28;20052;-84
2022/07/26 04:14:41;;;;;;;4.30;3.92;;;;;;;;;;5090973;28;20681;-84
2022/07/26 04:17:08;;;;;;;6.70;4.38;;;;;;;;;;5090178;28;20430;-84
2022/07/26 04:19:35;;;;;;;7.00;4.68;;;;;;;;;;5090712;28;20092;-84
2022/07/26 04:22:05;;;;;;;7.53;4.65;;;;;;;;;;5090317;28;20076;-84
2022/07/26 04:24:34;;;;;;;8.43;5.35;;;;;;;;;;5089409;28;20041;-83
2022/07/26 04:27:01;;;;;;;13.90;5.60;;;;;;;;;;5086516;28;20049;-85
2022/07/26 04:29:28;;;;;;;4.90;4.45;;;;;;;;;;5087274;28;20083;-85
2022/07/26 04:31:55;;;;;;;7.45;4.30;;;;;;;;;;5089708;28;20052;-84
2022/07/26 04:34:22;;;;;;;7.35;4.00;;;;;;;;;;5088930;28;20472;-83
2022/07/26 04:36:49;;;;;;;5.55;3.80;;;;;;;;;;5080478;28;20478;-84
2022/07/26 04:39:23;;;;;;;7.55;3.70;;;;;;;;;;5082543;28;20555;-83
2022/07/26 04:41:50;;;;;;;6.72;4.00;;;;;;;;;;5081200;28;20048;-84
2022/07/26 04:44:17;;;;;;;14.52;4.10;;;;;;;;;;5080249;28;20044;-84
2022/07/26 04:46:44;;;;;;;14.35;4.03;;;;;;;;;;5081874;28;20127;-84
2022/07/26 04:49:13;;;;;;;6.45;3.72;;;;;;;;;;5080436;28;20052;-84
2022/07/26 04:51:41;;;;;;;11.45;4.80;;;;;;;;;;5078597;28;20071;-84
2022/07/26 04:54:08;;;;;;;9.60;5.70;;;;;;;;;;5077194;28;20515;-85
2022/07/26 04:56:36;;;;;;;8.25;6.15;;;;;;;;;;5077843;28;20421;-84
2022/07/26 04:59:03;;;;;;;9.80;7.13;;;;;;;;;;5078243;28;20045;-84
2022/07/26 05:01:30;;;;;;;8.45;7.07;;;;;;;;;;5079965;28;20052;-86
2022/07/26 05:03:57;;;;;;;10.55;6.40;;;;;;;;;;5080472;28;20048;-85
2022/07/26 05:06:24;;;;;;;8.20;4.95;;;;;;;;;;5080107;28;20049;-85
2022/07/26 05:08:52;;;;;;;6.90;5.00;;;;;;;;;;5081271;28;20064;-85
2022/07/26 05:11:19;;;;;;;7.35;4.95;;;;;;;;;;5080837;28;20075;-85
2022/07/26 05:13:46;;;;;;;5.53;3.85;;;;;;;;;;5081410;28;20513;-85
2022/07/26 05:16:13;;;;;;;7.15;4.65;;;;;;;;;;5081677;28;20106;-85
2022/07/26 05:18:40;;;;;;;6.20;4.35;;;;;;;;;;5079393;28;20072;-85
2022/07/26 05:21:16;;;;;;;3.80;3.50;;;;;;;;;;5082483;28;20128;-85
2022/07/26 05:23:43;;;;;;;4.93;3.65;;;;;;;;;;5081798;28;20044;-85
2022/07/26 05:26:11;;;;;;;6.47;4.57;;;;;;;;;;5082218;28;20045;-84
2022/07/26 05:28:38;;;;;;;8.50;4.82;;;;;;;;;;5080781;28;20061;-85
2022/07/26 05:31:06;;;;;;;5.90;3.75;;;;;;;;;;5081366;28;20132;-85
2022/07/26 05:33:33;;;;;;;6.30;5.13;;;;;;;;;;5080637;28;20053;-85
2022/07/26 05:36:00;;;;;;;11.30;6.15;;;;;;;;;;5081502;28;20067;-84
2022/07/26 05:38:28;;;;;;;8.13;4.70;;;;;;;;;;5080966;28;20049;-85
2022/07/26 05:40:55;;;;;;;6.88;3.70;;;;;;;;;;5082715;28;20079;-85
2022/07/26 05:43:22;;;;;;;6.50;3.90;;;;;;;;;;5083336;28;20044;-84
2022/07/26 05:45:50;;;;;;;10.02;3.33;;;;;;;;;;5081950;28;20052;-87
2022/07/26 05:48:17;;;;;;;7.50;3.70;;;;;;;;;;5081466;28;20051;-85
2022/07/26 05:50:45;;;;;;;5.88;3.00;;;;;;;;;;5080604;28;20049;-85
2022/07/26 05:53:12;;;;;;;6.60;3.10;;;;;;;;;;5081204;28;20114;-85
2022/07/26 05:55:40;;;;;;;8.00;3.03;;;;;;;;;;5077472;28;20049;-84
2022/07/26 05:58:07;;;;;;;8.18;3.08;;;;;;;;;;5087039;28;20048;-84
2022/07/26 06:00:34;;;;;;;7.93;2.92;;;;;;;;;;5084392;28;20049;-85
2022/07/26 06:05:48;;;;;;;9.70;3.08;;;;;;;;;;5075601;28;20048;-86
2022/07/26 06:08:15;;;;;;;9.48;2.92;;;;;;;;;;5080454;28;20075;-86
2022/07/26 06:10:43;;;;;;;7.72;2.88;;;;;;;;;;5072952;28;20049;-86
2022/07/26 06:13:10;;;;;;;5.40;2.50;;;;;;;;;;5072650;28;20072;-86
2022/07/26 06:15:37;;;;;;;5.97;2.40;;;;;;;;;;5072627;28;20121;-86
2022/07/26 06:18:05;;;;;;;7.65;2.33;;;;;;;;;;5072417;28;20102;-87
2022/07/26 06:20:33;;;;;;;4.88;1.90;;;;;;;;;;5072603;28;20044;-86
2022/07/26 06:23:00;;;;;;;3.15;1.45;;;;;;;;;;5074125;28;20482;-86
2022/07/26 06:25:27;;;;;;;4.10;1.20;;;;;;;;;;5074779;28;20049;-87
2022/07/26 06:27:54;;;;;;;2.35;0.93;;;;;;;;;;5074294;28;20086;-88
2022/07/26 06:30:22;;;;;;;5.10;1.20;;;;;;;;;;5075421;28;20049;-88
2022/07/26 06:32:49;;;;;;;4.72;0.90;;;;;;;;;;5074404;28;20513;-87
2022/07/26 06:35:16;;;;;;;1.70;0.93;;;;;;;;;;5074329;28;20052;-87
2022/07/26 06:37:45;;;;;;;1.67;0.70;;;;;;;;;;5073956;28;20090;-85
2022/07/26 06:40:12;;;;;;;2.58;0.73;;;;;;;;;;5075277;28;20048;-86
2022/07/26 06:42:39;;;;;;;1.80;0.90;;;;;;;;;;5074257;28;20063;-87
2022/07/26 06:45:06;;;;;;;2.08;0.75;;;;;;;;;;5074435;28;20507;-86
2022/07/26 06:47:34;;;;;;;2.55;1.00;;;;;;;;;;5075209;28;20048;-88
2022/07/26 06:50:01;;;;;;;6.60;0.80;;;;;;;;;;5074319;28;20135;-87
2022/07/26 06:52:29;;;;;;;0.60;0.60;;;;;;;;;;5074283;28;20052;-87
2022/07/26 06:54:56;;;;;;;2.95;0.70;;;;;;;;;;5073954;28;20478;-86
2022/07/26 06:57:23;;;;;;;1.75;0.50;;;;;;;;;;5073696;28;20052;-85
2022/07/26 06:59:50;;;;;;;4.68;0.52;;;;;;;;;;5074284;28;20044;-86
2022/07/26 07:02:18;;;;;;;4.53;0.60;;;;;;;;;;5074315;28;20044;-87
2022/07/26 07:04:45;;;;;;;1.90;0.50;;;;;;;;;;5074060;28;20082;-86
2022/07/26 07:07:12;;;;;;;0.98;0.55;;;;;;;;;;5073487;28;20044;-87
2022/07/26 07:09:40;;;;;;;2.22;0.45;;;;;;;;;;5074656;28;20147;-88
2022/07/26 07:12:08;;;;;;;1.75;0.40;;;;;;;;;;5074002;28;20045;-87
2022/07/26 07:14:37;;;;;;;1.38;0.40;;;;;;;;;;5073603;28;20049;-85
2022/07/26 07:17:05;;;;;;;0.75;0.40;;;;;;;;;;5073363;28;20048;-87
2022/07/26 07:19:40;;;;;;;4.07;0.50;;;;;;;;;;5075465;28;20059;-86
2022/07/26 07:22:10;;;;;;;2.50;0.60;;;;;;;;;;5075066;28;20048;-86
2022/07/26 07:24:38;;;;;;;2.05;0.50;;;;;;;;;;5075014;28;20091;-85
2022/07/26 07:27:05;;;;;;;2.95;0.60;;;;;;;;;;5076387;28;20048;-85
2022/07/26 07:29:33;;;;;;;1.02;0.40;;;;;;;;;;5075499;28;20048;-85
2022/07/26 07:32:00;;;;;;;1.65;0.55;;;;;;;;;;5073692;28;20586;-84
2022/07/26 07:34:29;;;;;;;0.85;0.40;;;;;;;;;;5075943;28;20048;-84
2022/07/26 07:36:56;;;;;;;1.35;0.55;;;;;;;;;;5074383;28;20114;-85
2022/07/26 07:39:24;;;;;;;1.02;0.65;;;;;;;;;;5074532;28;20041;-88
2022/07/26 07:42:04;;;;;;;1.17;0.30;;;;;;;;;;5076222;28;20048;-84
2022/07/26 07:44:31;;;;;;;3.85;0.40;;;;;;;;;;5076288;28;20056;-85
2022/07/26 07:46:58;;;;;;;10.07;1.10;;;;;;;;;;5074570;28;20514;-85
2022/07/26 07:49:25;;;;;;;7.15;0.88;;;;;;;;;;5075320;28;20056;-85
2022/07/26 07:51:53;;;;;;;1.40;0.65;;;;;;;;;;5076217;28;20045;-83
2022/07/26 07:54:20;;;;;;;5.10;0.60;;;;;;;;;;5075873;28;20139;-85
2022/07/26 07:56:49;;;;;;;7.05;0.70;;;;;;;;;;5075498;28;20056;-84
2022/07/26 07:59:17;;;;;;;7.00;0.55;;;;;;;;;;5074467;28;20418;-85
2022/07/26 08:01:49;;;;;;;2.35;0.70;;;;;;;;;;5076886;28;20397;-85
2022/07/26 08:04:16;;;;;;;3.63;0.40;;;;;;;;;;5075172;28;20044;-85
2022/07/26 08:06:43;;;;;;;2.35;0.40;;;;;;;;;;5073907;28;20049;-85
2022/07/26 08:09:18;;;;;;;4.15;0.30;;;;;;;;;;5073432;28;20127;-85
2022/07/26 08:11:45;;;;;;;0.95;0.30;;;;;;;;;;5072952;28;20436;-85
2022/07/26 08:14:17;;;;;;;1.48;0.50;;;;;;;;;;5073073;28;20110;-85
2022/07/26 08:16:44;;;;;;;14.18;1.40;;;;;;;;;;5072678;28;20052;-86
2022/07/26 08:19:12;;;;;;;2.00;0.55;;;;;;;;;;5072798;28;20041;-86
2022/07/26 08:21:41;;;;;;;0.85;0.40;;;;;;;;;;5072977;28;20079;-85
2022/07/26 08:24:09;;;;;;;4.15;0.43;;;;;;;;;;5075042;28;20387;-85
2022/07/26 08:26:36;;;;;;;1.65;0.40;;;;;;;;;;5075451;28;20051;-84
2022/07/26 08:29:04;;;;;;;4.03;1.23;;;;;;;;;;5072778;28;20052;-84
2022/07/26 08:31:31;;;;;;;4.72;0.52;;;;;;;;;;5074433;28;20098;-85
2022/07/26 08:33:58;;;;;;;3.13;0.50;;;;;;;;;;5076145;28;20060;-85
2022/07/26 08:36:25;;;;;;;0.60;0.40;;;;;;;;;;5075262;28;20465;-84
2022/07/26 08:38:59;;;;;;;1.48;0.43;;;;;;;;;;5072527;28;20406;-84
2022/07/26 08:41:26;;;;;;;0.57;0.30;;;;;;;;;;5073800;28;20055;-86
2022/07/26 08:43:53;;;;;;;6.63;0.60;;;;;;;;;;5072221;28;20417;-85
2022/07/26 08:46:22;;;;;;;4.28;0.50;;;;;;;;;;5074595;28;20070;-85
2022/07/26 08:48:52;;;;;;;2.83;0.40;;;;;;;;;;5072549;28;20074;-84
2022/07/26 08:51:22;;;;;;;7.40;1.05;;;;;;;;;;5075371;28;20055;-85
2022/07/26 08:53:53;;;;;;;4.50;0.70;;;;;;;;;;5073424;28;20049;-84
2022/07/26 08:56:25;;;;;;;8.40;0.90;;;;;;;;;;5075756;28;20056;-83
2022/07/26 08:58:52;;;;;;;3.13;0.60;;;;;;;;;;5071911;28;20080;-84
2022/07/26 09:01:19;;;;;;;4.43;0.57;;;;;;;;;;5072825;28;20076;-84
2022/07/26 09:03:47;;;;;;;6.85;0.68;;;;;;;;;;5073135;28;20044;-83
2022/07/26 09:06:15;;;;;;;1.27;0.40;;;;;;;;;;5072799;28;20044;-85
2022/07/26 09:08:43;;;;;;;3.70;0.40;;;;;;;;;;5073610;28;20462;-86
2022/07/26 09:11:27;;;;;;;4.07;0.70;;;;;;;;;;5072722;28;20056;-85
2022/07/26 09:13:56;;;;;;;1.20;0.50;;;;;;;;;;5071675;28;20052;-86
2022/07/26 09:16:23;;;;;;;7.75;0.98;;;;;;;;;;5071249;28;20048;-85
2022/07/26 09:18:50;;;;;;;7.20;0.70;;;;;;;;;;5071531;28;20055;-86
2022/07/26 09:21:31;;;;;;;1.88;0.50;;;;;;;;;;5071600;28;20045;-86
2022/07/26 09:23:59;;;;;;;1.48;0.52;;;;;;;;;;5071383;28;20048;-86
2022/07/26 09:26:26;;;;;;;1.75;0.38;;;;;;;;;;5072602;28;20044;-85
2022/07/26 09:29:08;;;;;;;4.03;0.63;;;;;;;;;;5072706;28;20048;-85
2022/07/26 09:31:36;;;;;;;2.70;0.30;;;;;;;;;;5074390;28;20108;-86
2022/07/26 09:34:04;;;;;;;3.60;0.40;;;;;;;;;;5071579;28;20055;-85
2022/07/26 09:36:32;;;;;;;1.15;0.40;;;;;;;;;;5071605;28;20063;-85
2022/07/26 09:39:02;;;;;;;2.22;0.38;;;;;;;;;;5072729;28;20094;-85
2022/07/26 09:41:30;;;;;;;1.60;0.40;;;;;;;;;;5074831;28;20079;-85
2022/07/26 09:43:59;;;;;;;1.38;0.20;;;;;;;;;;5076755;28;20048;-86
2022/07/26 09:46:28;;;;;;;1.98;0.30;;;;;;;;;;5075724;28;20053;-85
2022/07/26 09:48:56;;;;;;;0.77;0.35;;;;;;;;;;5077349;28;20140;-85
2022/07/26 09:51:42;;;;;;;1.48;0.40;;;;;;;;;;5078274;28;20094;-83
2022/07/26 09:54:10;;;;;;;2.72;0.55;;;;;;;;;;5076178;28;20129;-85
2022/07/26 09:56:43;;;;;;;2.05;0.40;;;;;;;;;;5077723;28;20091;-85
2022/07/26 09:59:12;;;;;;;0.70;0.30;;;;;;;;;;5075192;28;20041;-87
2022/07/26 10:01:39;;;;;;;1.13;0.43;;;;;;;;;;5075308;28;20080;-86
2022/07/26 10:04:06;;;;;;;1.77;0.35;;;;;;;;;;5075453;28;20064;-86
2022/07/26 10:06:34;;;;;;;0.75;0.60;;;;;;;;;;5074801;28;20132;-88
2022/07/26 10:09:01;;;;;;;2.25;0.45;;;;;;;;;;5076265;28;20052;-86
2022/07/26 10:11:31;;;;;;;0.30;0.28;;;;;;;;;;5074781;28;20059;-87
2022/07/26 10:13:58;;;;;;;0.75;0.30;;;;;;;;;;5075638;28;20083;-87
2022/07/26 10:16:32;;;;;;;1.08;0.50;;;;;;;;;;5077148;28;20425;-85
2022/07/26 10:19:03;;;;;;;0.82;0.30;;;;;;;;;;5075897;28;20056;-85
2022/07/26 10:21:31;;;;;;;0.52;0.38;;;;;;;;;;5074456;28;20051;-86
2022/07/26 10:23:59;;;;;;;1.58;0.50;;;;;;;;;;5074501;28;20486;-85
2022/07/26 10:26:32;;;;;;;0.93;0.30;;;;;;;;;;5076004;28;20041;-86
2022/07/26 10:29:19;;;;;;;2.33;0.38;;;;;;;;;;5074745;28;20485;-84
2022/07/26 10:31:49;;;;;;;1.27;0.30;;;;;;;;;;5074362;28;20105;-85
2022/07/26 10:34:29;;;;;;;3.88;0.50;;;;;;;;;;5076174;28;20044;-86
2022/07/26 10:36:57;;;;;;;1.08;0.50;;;;;;;;;;5075142;28;20433;-86
2022/07/26 10:39:24;;;;;;;1.25;0.35;;;;;;;;;;5074604;28;20048;-85
2022/07/26 10:41:59;;;;;;;3.13;0.40;;;;;;;;;;5074209;28;20449;-86
2022/07/26 10:44:31;;;;;;;4.68;0.43;;;;;;;;;;5074488;28;20071;-85
2022/07/26 10:47:00;;;;;;;2.28;0.30;;;;;;;;;;5075044;28;20456;-86
2022/07/26 10:49:33;;;;;;;8.23;0.50;;;;;;;;;;5074287;28;20048;-85
2022/07/26 10:52:05;;;;;;;1.02;0.47;;;;;;;;;;5074084;28;20049;-84
2022/07/26 10:54:32;;;;;;;1.95;0.40;;;;;;;;;;5075866;28;20429;-85
2022/07/26 10:56:59;;;;;;;0.63;0.25;;;;;;;;;;5074131;28;20045;-84
2022/07/26 10:59:33;;;;;;;1.25;0.40;;;;;;;;;;5075506;28;20065;-84
2022/07/26 11:02:21;;;;;;;2.53;0.45;;;;;;;;;;5075391;28;20041;-84
2022/07/26 11:04:48;;;;;;;0.68;0.40;;;;;;;;;;5074676;28;20115;-84
2022/07/26 11:07:16;;;;;;;2.50;0.40;;;;;;;;;;5073824;28;20052;-86
2022/07/26 11:09:43;;;;;;;5.55;0.57;;;;;;;;;;5074111;28;20056;-85
2022/07/26 11:12:20;;;;;;;3.30;0.52;;;;;;;;;;5077272;28;20072;-85
2022/07/26 11:14:48;;;;;;;0.63;0.30;;;;;;;;;;5082861;28;20056;-85
2022/07/26 11:17:36;;;;;;;0.60;0.40;;;;;;;;;;5083040;28;20060;-86
2022/07/26 11:20:03;;;;;;;1.30;0.30;;;;;;;;;;5081914;28;20441;-85
2022/07/26 11:22:33;;;;;;;1.10;0.70;;;;;;;;;;5083747;28;20040;-85
2022/07/26 11:25:00;;;;;;;0.70;0.38;;;;;;;;;;5090992;28;20082;-87
2022/07/26 11:27:28;;;;;;;0.90;0.40;;;;;;;;;;5090573;28;20071;-84
2022/07/26 11:30:02;;;;;;;0.30;0.25;;;;;;;;;;5087705;28;20052;-84
2022/07/26 11:32:29;;;;;;;0.40;0.38;;;;;;;;;;5081891;28;20110;-84
2022/07/26 11:35:02;;;;;;;1.60;0.50;;;;;;;;;;5084920;28;20048;-85
2022/07/26 11:37:29;;;;;;;2.92;0.40;;;;;;;;;;5088468;28;20052;-84
2022/07/26 11:39:57;;;;;;;2.65;0.30;;;;;;;;;;5086197;28;20067;-88
2022/07/26 11:42:24;;;;;;;0.77;0.20;;;;;;;;;;5087385;28;20049;-81
2022/07/26 11:44:53;;;;;;;0.95;0.52;;;;;;;;;;5081084;28;20048;-86
2022/07/26 11:47:23;;;;;;;1.48;0.40;;;;;;;;;;5083308;28;20067;-84
2022/07/26 11:49:53;;;;;;;1.15;0.40;;;;;;;;;;5085676;28;20112;-85
2022/07/26 11:52:40;;;;;;;0.45;0.40;;;;;;;;;;5083773;28;20448;-83
2022/07/26 11:55:07;;;;;;;1.02;0.45;;;;;;;;;;5081753;28;20102;-84
2022/07/26 11:57:35;;;;;;;1.30;0.50;;;;;;;;;;5077580;28;20048;-86
2022/07/26 12:00:03;;;;;;;0.77;0.30;;;;;;;;;;5083005;28;20101;-85
2022/07/26 12:02:30;;;;;;;0.82;0.30;;;;;;;;;;5086756;28;20456;-84
2022/07/26 12:05:15;;;;;;;0.95;0.30;;;;;;;;;;5081660;28;20055;-84
2022/07/26 12:07:59;;;;;;;0.85;0.40;;;;;;;;;;5084956;28;20075;-84
2022/07/26 12:10:27;;;;;;;1.58;0.55;;;;;;;;;;5082549;28;20048;-85
2022/07/26 12:13:14;;;;;;;3.70;0.40;;;;;;;;;;5080150;28;20057;-86
2022/07/26 12:15:51;;;;;;;0.47;0.30;;;;;;;;;;5088436;28;20045;-84
2022/07/26 12:18:26;;;;;;;1.17;0.40;;;;;;;;;;5079679;28;20139;-85
2022/07/26 12:21:01;;;;;;;0.88;0.60;;;;;;;;;;5077474;28;20058;-87
2022/07/26 12:23:47;;;;;;;0.60;0.45;;;;;;;;;;5088049;28;20048;-86
2022/07/26 12:26:18;;;;;;;2.45;0.73;;;;;;;;;;5082547;28;20057;-83
2022/07/26 12:28:46;;;;;;;0.47;0.30;;;;;;;;;;5077737;28;20551;-84
2022/07/26 12:31:25;;;;;;;2.75;0.40;;;;;;;;;;5076408;28;20056;-84
2022/07/26 12:33:53;;;;;;;1.42;0.40;;;;;;;;;;5078857;28;20505;-84
2022/07/26 12:36:21;;;;;;;0.95;0.50;;;;;;;;;;5075672;28;20044;-83
2022/07/26 12:38:55;;;;;;;1.35;0.40;;;;;;;;;;5079438;28;20068;-85
2022/07/26 12:41:35;;;;;;;2.17;0.40;;;;;;;;;;5085140;28;20040;-85
2022/07/26 12:44:03;;;;;;;1.65;0.60;;;;;;;;;;5082791;28;20049;-83
2022/07/26 12:46:32;;;;;;;2.97;0.40;;;;;;;;;;5079985;28;20128;-86
2022/07/26 12:48:59;;;;;;;1.23;0.63;;;;;;;;;;5079765;28;20143;-84
2022/07/26 12:51:27;;;;;;;1.15;0.63;;;;;;;;;;5081587;28;20044;-83
2022/07/26 12:54:00;;;;;;;2.47;0.40;;;;;;;;;;5084123;28;20052;-86
2022/07/26 12:56:27;;;;;;;0.70;0.40;;;;;;;;;;5089552;28;20056;-85
2022/07/26 12:58:59;;;;;;;0.90;0.50;;;;;;;;;;5081090;28;20044;-86
2022/07/26 13:01:30;;;;;;;3.30;0.80;;;;;;;;;;5080830;28;20056;-85
2022/07/26 13:03:58;;;;;;;1.35;0.68;;;;;;;;;;5077756;28;20409;-84
2022/07/26 13:06:25;;;;;;;4.22;0.60;;;;;;;;;;5081380;28;20072;-85
2022/07/26 13:08:52;;;;;;;2.35;0.82;;;;;;;;;;5082543;28;20048;-85
2022/07/26 13:11:19;;;;;;;4.47;0.80;;;;;;;;;;5083384;28;20124;-84
2022/07/26 13:13:48;;;;;;;1.08;0.68;;;;;;;;;;5084372;28;20048;-87
2022/07/26 13:16:15;;;;;;;1.80;1.40;;;;;;;;;;5083986;28;20110;-86
2022/07/26 13:18:43;;;;;;;4.50;0.85;;;;;;;;;;5085048;28;20375;-86
2022/07/26 13:21:10;;;;;;;2.65;0.75;;;;;;;;;;5080421;28;20045;-85
2022/07/26 13:23:38;;;;;;;2.42;0.70;;;;;;;;;;5081459;28;20048;-84
2022/07/26 13:26:05;;;;;;;2.35;0.90;;;;;;;;;;5080341;28;20048;-84
2022/07/26 13:28:36;;;;;;;1.27;0.90;;;;;;;;;;5082167;28;20071;-89
2022/07/26 13:31:03;;;;;;;2.58;0.80;;;;;;;;;;5085586;28;20093;-85
2022/07/26 13:33:31;;;;;;;1.30;0.80;;;;;;;;;;5079615;28;20521;-84
2022/07/26 13:35:59;;;;;;;1.27;0.88;;;;;;;;;;5080847;28;20056;-85
2022/07/26 13:38:27;;;;;;;4.20;0.85;;;;;;;;;;5083760;28;20057;-86
2022/07/26 13:40:55;;;;;;;0.55;0.55;;;;;;;;;;5083640;28;20048;-84
2022/07/26 13:43:23;;;;;;;1.90;0.70;;;;;;;;;;5077279;28;20071;-83
2022/07/26 13:45:50;;;;;;;2.22;0.60;;;;;;;;;;5078540;28;20049;-85
2022/07/26 13:48:18;;;;;;;1.00;0.70;;;;;;;;;;5078498;28;20087;-84
2022/07/26 13:50:45;;;;;;;2.90;2.30;;;;;;;;;;5077633;28;20048;-86
2022/07/26 13:53:12;;;;;;;2.05;0.60;;;;;;;;;;5081330;28;20173;-85
2022/07/26 13:55:40;;;;;;;1.40;0.55;;;;;;;;;;5087856;28;20052;-85
2022/07/26 13:58:07;;;;;;;2.22;0.77;;;;;;;;;;5086881;28;20063;-85
2022/07/26 14:00:36;;;;;;;4.93;0.68;;;;;;;;;;5085156;28;20098;-85
2022/07/26 14:03:04;;;;;;;2.55;0.75;;;;;;;;;;5085752;28;20044;-84
2022/07/26 14:05:31;;;;;;;2.50;0.77;;;;;;;;;;5088390;28;20053;-85
2022/07/26 14:07:58;;;;;;;2.97;0.73;;;;;;;;;;5081023;28;20045;-84
2022/07/26 14:10:26;;;;;;;2.78;0.80;;;;;;;;;;5086383;28;20056;-85
2022/07/26 14:12:55;;;;;;;4.20;2.42;;;;;;;;;;5085475;28;20149;-87
2022/07/26 14:15:22;;;;;;;2.65;0.70;;;;;;;;;;5071660;28;20052;-84
2022/07/26 14:17:50;;;;;;;3.70;0.90;;;;;;;;;;5091153;28;20056;-85
2022/07/26 14:20:18;;;;;;;2.70;0.80;;;;;;;;;;5082234;28;20045;-84
2022/07/26 14:22:46;;;;;;;1.73;0.50;;;;;;;;;;5080722;28;20080;-86
2022/07/26 14:25:13;;;;;;;0.57;0.40;;;;;;;;;;5083608;28;20433;-85
2022/07/26 14:27:40;;;;;;;4.15;1.30;;;;;;;;;;5078427;28;20112;-84
2022/07/26 14:30:08;;;;;;;4.18;0.90;;;;;;;;;;5081537;28;20083;-84
2022/07/26 14:32:35;;;;;;;0.52;0.52;;;;;;;;;;5078071;28;20494;-84
2022/07/26 14:35:02;;;;;;;2.47;0.82;;;;;;;;;;5078216;28;20059;-84
2022/07/26 14:37:30;;;;;;;1.38;0.32;;;;;;;;;;5077079;28;20098;-86
2022/07/26 14:40:12;;;;;;;0.60;0.60;;;;;;;;;;5080395;28;20055;-85
2022/07/26 14:42:40;;;;;;;1.65;0.70;;;;;;;;;;5081884;28;20041;-86
2022/07/26 14:45:08;;;;;;;1.58;0.70;;;;;;;;;;5078018;28;20075;-85
2022/07/26 14:47:36;;;;;;;2.78;0.82;;;;;;;;;;5081441;28;20048;-84
2022/07/26 14:50:05;;;;;;;2.40;0.70;;;;;;;;;;5079199;28;20566;-86
2022/07/26 14:52:36;;;;;;;1.25;0.75;;;;;;;;;;5087830;28;20059;-86
2022/07/26 14:55:04;;;;;;;0.70;0.60;;;;;;;;;;5091850;28;20048;-84